createdAt,value
2019-04-10T00:03:33.603Z,99.30
2019-04-10T00:08:34.549Z,99.40
2019-04-10T00:13:38.589Z,99.50
2019-04-10T00:18:42.601Z,99.00
2019-04-10T00:23:47.102Z,99.30
2019-04-10T00:28:51.821Z,99.10
2019-04-10T00:33:56.838Z,98.70
2019-04-10T00:39:00.697Z,98.80
2019-04-10T00:44:05.679Z,98.60
2019-04-10T00:49:09.613Z,98.50
2019-04-10T00:54:14.611Z,98.30
2019-04-10T00:59:18.403Z,99.40
2019-04-10T01:04:22.362Z,99.00
2019-04-10T01:09:26.052Z,98.50
2019-04-10T01:14:29.765Z,98.40
2019-04-10T01:19:34.927Z,98.50
2019-04-10T01:24:38.698Z,98.50
2019-04-10T01:29:42.358Z,98.00
2019-04-10T01:34:47.302Z,98.10
2019-04-10T01:39:50.982Z,97.90
2019-04-10T01:44:55.259Z,97.90
2019-04-10T01:49:59.316Z,97.80
2019-04-10T01:55:15.982Z,97.50
2019-04-10T02:00:11.472Z,97.50
2019-04-10T02:05:15.173Z,97.70
2019-04-10T02:10:19.015Z,98.20
2019-04-10T02:15:22.814Z,97.90
2019-04-10T02:20:27.146Z,98.70
2019-04-10T02:25:30.814Z,98.70
2019-04-10T02:30:35.178Z,99.40
2019-04-10T02:35:40.095Z,99.30
2019-04-10T02:40:45.584Z,99.60
2019-04-10T02:45:51.057Z,99.60
2019-04-10T02:50:55.507Z,99.90
2019-04-10T02:56:00.401Z,99.00
2019-04-10T03:01:04.795Z,98.90
2019-04-10T03:06:09.211Z,98.90
2019-04-10T03:11:14.642Z,99.40
2019-04-10T03:16:19.610Z,99.30
2019-04-10T03:21:23.346Z,99.70
2019-04-10T03:26:27.895Z,99.50
2019-04-10T03:31:32.558Z,99.70
2019-04-10T03:36:38.514Z,99.90
2019-04-10T03:41:42.426Z,99.90
2019-04-10T03:46:46.943Z,99.90
2019-04-10T03:51:50.997Z,99.90
2019-04-10T03:56:54.678Z,99.90
2019-04-10T04:01:58.382Z,99.90
2019-04-10T04:07:02.141Z,99.90
2019-04-10T04:12:06.367Z,99.90
2019-04-10T04:17:10.194Z,99.90
2019-04-10T04:22:14.668Z,99.90
2019-04-10T04:27:18.934Z,99.90
2019-04-10T04:32:24.089Z,99.90
2019-04-10T04:37:28.036Z,99.90
2019-04-10T04:42:32.929Z,99.90
2019-04-10T04:47:36.873Z,99.90
2019-04-10T04:52:41.191Z,99.90
2019-04-10T04:57:45.100Z,99.90
2019-04-10T05:02:49.338Z,99.90
2019-04-10T05:07:59.454Z,99.90
2019-04-10T05:13:00.018Z,99.90
2019-04-10T05:18:04.070Z,99.90
2019-04-10T05:23:08.196Z,99.90
2019-04-10T05:28:13.243Z,99.90
2019-04-10T05:33:17.339Z,99.90
2019-04-10T05:38:22.813Z,99.50
2019-04-10T05:43:26.796Z,99.50
2019-04-10T05:48:31.423Z,99.30
2019-04-10T05:53:36.469Z,98.40
2019-04-10T05:58:40.882Z,98.20
2019-04-10T06:03:45.726Z,98.00
2019-04-10T06:08:49.646Z,97.30
2019-04-10T06:13:53.661Z,97.10
2019-04-10T06:18:57.776Z,96.60
2019-04-10T06:24:01.477Z,96.00
2019-04-10T06:29:06.467Z,95.90
2019-04-10T06:34:11.168Z,96.00
2019-04-10T06:39:16.434Z,95.20
2019-04-10T06:44:36.557Z,94.60
2019-04-10T06:55:28.710Z,94.20
2019-04-10T07:01:24.258Z,93.30
2019-04-10T07:07:12.388Z,91.30
2019-04-10T07:12:56.529Z,88.20
2019-04-10T07:19:04.282Z,85.30
2019-04-10T07:24:46.314Z,83.60
2019-04-10T07:30:47.833Z,82.00
2019-04-10T07:42:31.268Z,80.70
2019-04-10T07:47:35.640Z,79.90
2019-04-10T07:53:22.643Z,77.90
2019-04-10T07:58:00.800Z,76.20
2019-04-10T08:03:14.708Z,76.20
2019-04-10T08:08:27.728Z,72.60
2019-04-10T08:14:15.300Z,66.30
2019-04-10T08:19:28.183Z,56.50
2019-04-10T08:24:53.669Z,50.70
2019-04-10T08:30:17.422Z,45.70
2019-04-10T08:35:34.161Z,47.20
2019-04-10T08:40:56.541Z,43.60
2019-04-10T08:46:26.624Z,40.30
2019-04-10T08:51:55.515Z,38.70
2019-04-10T08:57:31.896Z,37.50
2019-04-10T09:03:22.962Z,34.80
2019-04-10T09:09:17.322Z,34.30
2019-04-10T09:14:43.941Z,30.90
2019-04-10T09:19:58.268Z,30.90
2019-04-10T09:25:17.826Z,28.40
2019-04-10T09:30:35.401Z,27.10
2019-04-10T09:35:46.836Z,27.90
2019-04-10T09:41:17.382Z,26.70
2019-04-10T09:46:28.799Z,26.90
2019-04-10T09:51:48.175Z,26.10
2019-04-10T09:57:15.392Z,26.00
2019-04-10T10:02:41.780Z,25.60
2019-04-10T10:08:02.265Z,24.20
2019-04-10T10:13:25.562Z,24.20
2019-04-10T10:18:31.047Z,23.00
2019-04-10T10:23:52.019Z,22.80
2019-04-10T10:29:02.687Z,23.00
2019-04-10T10:34:10.272Z,23.10
2019-04-10T10:39:23.698Z,22.30
2019-04-10T10:44:48.082Z,22.50
2019-04-10T10:49:55.254Z,22.80
2019-04-10T10:55:29.969Z,22.60
2019-04-10T11:01:15.851Z,23.30
2019-04-10T11:06:50.600Z,22.20
2019-04-10T11:12:40.835Z,22.10
2019-04-10T11:18:11.976Z,22.70
2019-04-10T11:24:38.128Z,22.50
2019-04-10T11:29:39.008Z,23.40
2019-04-10T11:34:43.248Z,22.70
2019-04-10T11:39:48.239Z,22.30
2019-04-10T11:44:54.590Z,23.50
2019-04-10T11:50:00.980Z,24.10
2019-04-10T11:55:13.096Z,24.60
2019-04-10T12:00:17.490Z,23.50
2019-04-10T12:05:20.015Z,24.00
2019-04-10T12:15:32.314Z,22.70
2019-04-10T12:20:37.436Z,23.10
2019-04-10T12:25:41.385Z,22.90
2019-04-10T12:30:45.790Z,23.90
2019-04-10T12:35:49.947Z,24.30
2019-04-10T12:40:53.685Z,24.20
2019-04-10T12:45:57.407Z,24.60
2019-04-10T12:51:01.464Z,24.00
2019-04-10T12:56:06.048Z,24.30
2019-04-10T13:01:09.942Z,25.20
2019-04-10T13:06:13.749Z,26.50
2019-04-10T13:11:18.461Z,25.50
2019-04-10T13:16:22.262Z,24.10
2019-04-10T13:21:26.769Z,24.30
2019-04-10T13:26:30.719Z,24.70
2019-04-10T13:31:35.158Z,25.40
2019-04-10T13:36:39.882Z,26.60
2019-04-10T13:41:46.231Z,27.10
2019-04-10T13:46:53.125Z,25.80
2019-04-10T13:51:59.576Z,24.70
2019-04-10T13:57:05.732Z,25.00
2019-04-10T14:02:17.331Z,25.40
2019-04-10T14:07:22.304Z,27.60
2019-04-10T14:12:27.114Z,26.70
2019-04-10T14:17:33.364Z,29.00
2019-04-10T14:22:44.056Z,27.80
2019-04-10T14:27:49.430Z,26.90
2019-04-10T14:32:55.237Z,26.20
2019-04-10T14:37:59.198Z,26.60
2019-04-10T14:43:05.177Z,28.60
2019-04-10T14:48:08.444Z,29.50
2019-04-10T14:53:15.030Z,29.50
2019-04-10T14:58:24.189Z,28.00
2019-04-10T15:03:26.511Z,29.10
2019-04-10T15:08:33.410Z,29.40
2019-04-10T15:13:38.840Z,28.40
2019-04-10T15:18:45.970Z,28.20
2019-04-10T15:23:53.788Z,30.00
2019-04-10T15:29:00.289Z,32.90
2019-04-10T15:34:06.337Z,34.20
2019-04-10T15:39:13.495Z,32.20
2019-04-10T15:44:23.741Z,32.00
2019-04-10T15:49:30.928Z,35.60
2019-04-10T15:54:38.173Z,37.40
2019-04-10T15:59:44.517Z,37.50
2019-04-10T16:04:53.061Z,37.70
2019-04-10T16:10:06.959Z,37.20
2019-04-10T16:15:13.155Z,37.60
2019-04-10T16:20:27.875Z,37.70
2019-04-10T16:25:36.135Z,39.30
2019-04-10T16:30:43.208Z,40.50
2019-04-10T16:35:48.297Z,41.50
2019-04-10T16:40:54.906Z,39.40
2019-04-10T16:45:59.772Z,36.90
2019-04-10T16:51:05.611Z,38.70
2019-04-10T16:56:12.190Z,40.50
2019-04-10T17:01:18.112Z,41.00
2019-04-10T17:06:23.354Z,41.60
2019-04-10T17:11:30.776Z,43.70
2019-04-10T17:16:38.230Z,42.50
2019-04-10T17:21:44.610Z,45.10
2019-04-10T17:26:51.007Z,45.80
2019-04-10T17:31:57.043Z,46.40
2019-04-10T17:37:01.560Z,47.00
2019-04-10T17:42:06.175Z,47.10
2019-04-10T17:47:12.369Z,48.20
2019-04-10T17:52:18.743Z,48.70
2019-04-10T17:57:37.051Z,49.60
2019-04-10T18:02:34.745Z,50.40
2019-04-10T18:07:40.892Z,50.50
2019-04-10T18:12:48.145Z,51.50
2019-04-10T18:17:53.879Z,52.20
2019-04-10T18:23:01.002Z,52.80
2019-04-10T18:28:07.998Z,53.30
2019-04-10T18:33:15.510Z,53.50
2019-04-10T18:38:21.701Z,54.30
2019-04-10T18:43:28.522Z,54.70
2019-04-10T18:55:22.489Z,56.50
2019-04-10T19:01:29.882Z,56.60
2019-04-10T19:07:26.057Z,57.30
2019-04-10T19:18:55.250Z,58.60
2019-04-10T19:30:35.368Z,59.10
2019-04-10T19:42:05.010Z,61.40
2019-04-10T19:47:22.676Z,61.40
2019-04-10T19:52:30.603Z,63.60
2019-04-10T20:03:54.886Z,66.20
2019-04-10T20:09:08.354Z,67.70
2019-04-10T20:14:53.241Z,69.10
2019-04-10T20:19:58.310Z,71.10
2019-04-10T20:25:02.969Z,71.80
2019-04-10T20:30:07.827Z,73.10
2019-04-10T20:35:12.209Z,75.90
2019-04-10T20:40:15.998Z,76.80
2019-04-10T20:45:21.053Z,77.90
2019-04-10T20:50:25.994Z,78.30
2019-04-10T20:55:29.984Z,76.30
2019-04-10T21:00:38.695Z,78.80
2019-04-10T21:05:42.513Z,74.80
2019-04-10T21:10:47.224Z,74.10
2019-04-10T21:15:51.581Z,74.50
2019-04-10T21:20:55.818Z,76.40
2019-04-10T21:26:00.573Z,77.70
2019-04-10T21:31:34.216Z,79.50
2019-04-10T21:36:39.231Z,79.00
2019-04-10T21:41:43.046Z,78.00
2019-04-10T21:46:46.927Z,81.20
2019-04-10T21:51:51.600Z,77.90
2019-04-10T21:56:55.637Z,79.80
2019-04-10T22:01:59.640Z,78.80
2019-04-10T22:07:16.835Z,79.70
2019-04-10T22:12:30.665Z,80.30
2019-04-10T22:17:30.052Z,81.80
2019-04-10T22:22:35.077Z,80.40
2019-04-10T22:27:39.377Z,80.50
2019-04-10T22:32:43.918Z,81.50
2019-04-10T22:37:48.622Z,81.90
2019-04-10T22:42:53.535Z,80.00
2019-04-10T22:47:58.477Z,82.10
2019-04-10T22:53:02.609Z,81.50
2019-04-10T22:58:06.662Z,82.50
2019-04-10T23:03:11.453Z,82.40
2019-04-10T23:08:15.660Z,81.40
2019-04-10T23:13:19.534Z,82.00
2019-04-10T23:18:23.494Z,82.50
2019-04-10T23:23:27.338Z,83.30
2019-04-10T23:28:31.567Z,85.00
2019-04-10T23:33:36.390Z,85.10
2019-04-10T23:38:41.683Z,83.30
2019-04-10T23:43:46.097Z,85.20
2019-04-10T23:48:49.927Z,84.80
2019-04-10T23:53:53.613Z,84.40
2019-04-10T23:58:58.283Z,85.90
